Flight Track Log - Related Links

Times and Time Zones

All times are in EDT time to prevent confusion due to time zone crossing. See the FLG3862 flight status page for this flight to view local times or setup timezone preferences in your user account.

Time Position Orientation Groundspeed Altitude Reporting Facility
EDT Latitude Longitude Course Direction KTS MPH feet Rate Location/Type
Mon 12:44:39 PM 44.3833 -73.2708 258° West 234 269 7,500  Level Boston Center
Mon 12:45:39 PM 44.3700 -73.3664 259° West 253 291 10,200 2,231 Climbing Boston Center
Mon 12:46:40 PM 44.3547 -73.4767 259° West 276 318 12,000 1,831 Climbing Boston Center
Mon 12:47:37 PM 44.3367 -73.5981 258° West 302 348 13,800 2,000 Climbing Boston Center
Mon 12:48:00 PM 44.3371 -73.9072 259° West  Level FlightAware Approximate
Mon 12:48:37 PM 44.3167 -73.7283 258° West 332 382 15,900  Level Boston Center
Mon 12:49:38 PM 44.2983 -73.8586 259° West 344 396 17,400 1,263 Climbing Boston Center
Mon 12:50:50 PM 44.2800 -73.9914 259° West 344 396 18,700 1,333 Climbing Boston Center
Mon 12:52:02 PM 44.2525 -74.1617 257° West 355 409 20,600 1,273 Climbing Boston Center
Mon 12:53:02 PM 44.2292 -74.3292 259° West 355 409 21,500 900 Climbing Boston Center
Mon 12:54:02 PM 44.2039 -74.4731 256° West 367 422 22,400 942 Climbing Boston Center
Mon 12:55:03 PM 44.1825 -74.6172 258° West 377 434 23,400 992 Climbing Boston Center
Mon 12:56:03 PM 44.1628 -74.7611 259° West 382 440 24,400 915 Climbing Boston Center
Mon 12:57:01 PM 44.1458 -74.8819 259° West 387 445 25,200 1,008 Climbing Boston Center
Mon 12:58:02 PM 44.1169 -75.0603 257° West 392 451 26,400 992 Climbing Boston Center
Mon 12:59:02 PM 44.0947 -75.2039 258° West 392 451 27,200 800 Climbing Boston Center
Mon 01:00:02 PM 44.0703 -75.3500 257° West 392 451 28,000 706 Climbing Boston Center
Mon 01:01:01 PM 44.0478 -75.4992 258° West 392 451 28,600 706 Climbing Boston Center
Mon 01:02:01 PM 44.0228 -75.6481 257° West 392 451 29,400 694 Climbing Boston Center
Mon 01:03:02 PM 43.9975 -75.7997 257° West 392 451 30,000 298 Climbing Boston Center
Mon 01:04:02 PM 43.9744 -75.9486 258° West 392 451 30,000  Level Boston Center
Mon 01:05:02 PM 43.9531 -76.1003 259° West 397 457 30,000  Level Boston Center
Mon 01:06:03 PM 43.9503 -76.2472 269° West 411 473 30,000  Level Boston Center
Mon 01:07:01 PM 43.9469 -76.4028 268° West 411 473 30,000  Level Boston Center
Mon 01:08:01 PM 43.9436 -76.5611 268° West 416 479 30,000  Level Boston Center
Mon 01:09:32 PM 43.9167 -76.7833 261° West 400 460 30,000  Level Toronto Center
Mon 01:10:32 PM 43.9167 -76.9500 270° West 400 460 30,000  Level Toronto Center
Mon 01:11:32 PM 43.9000 -77.0833 260° West 390 449 30,000  Level Toronto Center
Mon 01:12:32 PM 43.9000 -77.2333 270° West 380 437 30,000  Level Toronto Center
Mon 01:13:32 PM 43.9000 -77.3667 270° West 380 437 30,000  Level Toronto Center
Mon 01:14:32 PM 43.9000 -77.5333 270° West 380 437 30,000  Level Toronto Center
Mon 01:15:32 PM 43.9000 -77.6667 270° West 390 449 30,000  Level Toronto Center
Mon 01:16:32 PM 43.8833 -77.8333 262° West 380 437 30,000  Level Toronto Center
Mon 01:17:32 PM 43.8833 -77.9667 270° West 380 437 30,000  Level Toronto Center
Mon 01:18:32 PM 43.8667 -78.1333 262° West 380 437 30,000  Level Toronto Center
Mon 01:19:32 PM 43.8667 -78.2667 270° West 380 437 30,000  Level Toronto Center
Mon 01:20:32 PM 43.8500 -78.4000 260° West 380 437 30,000  Level Toronto Center
Mon 01:21:32 PM 43.8667 -78.5667 278° West 380 437 30,000  Level Toronto Center
Mon 01:22:32 PM 43.8500 -78.7000 260° West 380 437 30,000  Level Toronto Center
Mon 01:23:32 PM 43.8500 -78.8500 270° West 380 437 30,000  Level Toronto Center
Mon 01:24:32 PM 43.8333 -78.9833 260° West 380 437 30,000  Level Toronto Center
Mon 01:25:32 PM 43.8333 -79.1500 270° West 380 437 30,000  Level Toronto Center
Mon 01:26:32 PM 43.8167 -79.2833 260° West 380 437 30,000  Level Toronto Center
Mon 01:27:32 PM 43.7667 -79.4000 239° Southwest 380 437 30,000  Level Toronto Center
Mon 01:28:32 PM 43.6833 -79.5167 225° Southwest 390 449 30,000  Level Toronto Center
Mon 01:29:32 PM 43.6167 -79.6167 227° Southwest 380 437 30,000  Level Toronto Center
Mon 01:30:32 PM 43.5333 -79.7167 221° Southwest 380 437 30,000  Level Toronto Center
Mon 01:31:32 PM 43.4667 -79.8167 227° Southwest 370 426 30,000  Level Toronto Center
Mon 01:32:32 PM 43.4000 -79.9333 232° Southwest 370 426 30,000 -500 Level Toronto Center
Mon 01:33:32 PM 43.3167 -80.0167 216° Southwest 370 426 29,000 -1,050 Descending Toronto Center
Mon 01:34:32 PM 43.2500 -80.1167 228° Southwest 370 426 27,900 -1,000 Descending Toronto Center
Mon 01:35:32 PM 43.1833 -80.2333 232° Southwest 370 426 27,000 -1,000 Descending Toronto Center
Mon 01:36:32 PM 43.1000 -80.3167 216° Southwest 370 426 25,900 -1,033 Descending Toronto Center
Mon 01:38:32 PM 42.9500 -80.5167 224° Southwest 370 426 23,900 -1,000 Descending Toronto Center
Mon 01:39:32 PM 42.8833 -80.6167 228° Southwest 370 426 22,900 -1,063 Descending Toronto Center
Mon 01:39:51 PM 42.8708 -80.6711 253° West 377 434 22,500 -1,367 Descending Cleveland Center
Mon 01:40:51 PM 42.7997 -80.7642 224° Southwest 371 427 21,100 -750 Descending Cleveland Center
Mon 01:41:51 PM 42.7308 -80.8575 225° Southwest 359 413 21,000 -50 Descending Cleveland Center
Mon 01:42:51 PM 42.6931 -80.9731 246° West 336 387 21,000  Level Cleveland Center
Mon 01:43:51 PM 42.6819 -81.1086 264° West 342 394 21,000  Level Cleveland Center
Mon 01:44:51 PM 42.6667 -81.2383 261° West 353 406 21,000  Level Cleveland Center
Mon 01:45:51 PM 42.6514 -81.3764 261° West 368 423 21,000 -400 Level Cleveland Center
Mon 01:46:51 PM 42.6358 -81.4947 260° West 368 423 20,200 -950 Descending Cleveland Center
Mon 01:47:51 PM 42.6203 -81.6244 261° West 363 418 19,100 -1,150 Descending Cleveland Center
Mon 01:48:51 PM 42.6064 -81.7481 261° West 345 397 17,900 -1,150 Descending Cleveland Center
Mon 01:49:51 PM 42.5883 -81.8806 260° West 340 391 16,800 -1,100 Descending Cleveland Center
Mon 01:50:51 PM 42.5744 -82.0014 261° West 335 386 15,700 -1,100 Descending Cleveland Center
Mon 01:51:51 PM 42.5603 -82.1194 261° West 330 380 14,600 -1,050 Descending Cleveland Center
Mon 01:52:51 PM 42.5442 -82.2347 259° West 325 374 13,600 -1,050 Descending Cleveland Center
Mon 01:53:51 PM 42.5300 -82.3469 260° West 319 367 12,500 -821 Descending Cleveland Center
Mon 01:54:48 PM 42.5222 -82.4539 264° West 294 338 12,000 -254 Descending Cleveland Center
Mon 01:55:49 PM 42.5058 -82.5519 257° West 260 299 12,000 -197 Level Cleveland Center
Mon 01:56:50 PM 42.4708 -82.6464 243° Southwest 268 308 11,600 -885 Descending Cleveland Center
Mon 01:57:51 PM 42.4319 -82.7297 238° Southwest 270 311 10,200 -1,388 Descending Cleveland Center
Mon 01:58:51 PM 42.3947 -82.8128 239° Southwest 265 305 8,800 -1,550 Descending Cleveland Center
Mon 01:59:51 PM 42.3783 -82.9022 256° West 255 293 7,100 -950 Descending Cleveland Center
Mon 02:00:51 PM 42.4036 -82.9958 290° West 255 293 6,900 -750 Descending Cleveland Center
Mon 02:01:51 PM 42.4122 -83.0806 278° West 248 285 5,600 -1,027 Descending Cleveland Center
Mon 02:02:42 PM 42.4011 -83.1400 256° West 202 232 5,000 -507 Descending FAA TRACON SMA TRACON (SMA)
Mon 02:03:02 PM 42.3925 -83.1636 244° Southwest 185 213 5,000 -300 Level FAA TRACON SMA TRACON (SMA)
Mon 02:03:22 PM 42.3853 -83.1786 237° Southwest 180 207 4,800 -1,050 Descending FAA TRACON SMA TRACON (SMA)
Mon 02:03:42 PM 42.3736 -83.1981 231° Southwest 176 203 4,300 -1,317 Descending FAA TRACON SMA TRACON (SMA)
Mon 02:04:03 PM 42.3611 -83.2158 226° Southwest 177 204 3,900 -878 Descending FAA TRACON SMA TRACON (SMA)
Mon 02:04:23 PM 42.3500 -83.2297 223° Southwest 176 203 3,700 -900 Descending FAA TRACON SMA TRACON (SMA)
Mon 02:04:43 PM 42.3367 -83.2447 220° Southwest 171 197 3,300 -1,050 Descending FAA TRACON SMA TRACON (SMA)
Mon 02:05:03 PM 42.3261 -83.2550 216° Southwest 167 192 3,000 -900 Descending FAA TRACON SMA TRACON (SMA)
Mon 02:05:23 PM 42.3122 -83.2664 211° Southwest 163 188 2,700 -900 Descending FAA TRACON SMA TRACON (SMA)
Mon 02:05:43 PM 42.2992 -83.2764 210° Southwest 151 174 2,400 -900 Descending FAA TRACON SMA TRACON (SMA)
Mon 02:06:03 PM 42.2872 -83.2844 207° Southwest 133 153 2,100 -750 Descending FAA TRACON SMA TRACON (SMA)
Mon 02:06:23 PM 42.2786 -83.2908 209° Southwest 121 139 1,900 -600 Descending FAA TRACON SMA TRACON (SMA)
Mon 02:06:43 PM 42.2678 -83.2986 208° Southwest 123 142 1,700 -450 Descending FAA TRACON SMA TRACON (SMA)
Mon 02:07:03 PM 42.2592 -83.3050 209° Southwest 122 140 1,600 -450 Descending FAA TRACON SMA TRACON (SMA)
Mon 02:07:23 PM 42.2489 -83.3131 210° Southwest 118 136 1,400 -600 Descending FAA TRACON SMA TRACON (SMA)
Mon 02:07:43 PM 42.2400 -83.3194 208° Southwest 118 136 1,200 -750 Descending FAA TRACON SMA TRACON (SMA)
Mon 02:08:03 PM 42.2297 -83.3267 207° Southwest 118 136 900 -769 Descending FAA TRACON SMA TRACON (SMA)
Mon 02:08:22 PM 42.2208 -83.3333 209° Southwest 124 143 700 -462 Descending FAA TRACON SMA TRACON (SMA)
Mon 02:08:42 PM 42.2108 -83.3406 208° Southwest 76 87 600 -150 Descending FAA TRACON SMA TRACON (SMA)
Mon 02:09:02 PM 42.2075 -83.3431 209° Southwest 56 64 600  Level FAA TRACON SMA TRACON (SMA)
Mon 02:09:22 PM 42.2075 -83.3431 90° East 56 64 600  Level FAA TRACON SMA TRACON (SMA)

Login

Don't have an account? Register now (free) for customized features, flight alerts, and more!